Time;durP1;ratioP1;P1;durP2;ratioP2;P2;SDS_P1;SDS_P2;PMS_P1;PMS_P2;Temp;Humidity;BMP_temperature;BMP_pressure;BME280_temperature;BME280_humidity;BME280_pressure;Samples;Min_cycle;Max_cycle;Signal;HPM_P1;HPM_P2
2021/03/08 00:01:20;;;;;;;13.98;10.00;;;;;;;1.72;62.67;99890.59;1772249;80;21681;-71
2021/03/08 00:03:48;;;;;;;14.05;10.70;;;;;;;1.72;62.75;99897.98;1751995;80;21071;-72
2021/03/08 00:06:16;;;;;;;14.50;10.30;;;;;;;1.72;62.84;99890.59;1751951;80;21658;-72
2021/03/08 00:08:44;;;;;;;13.80;10.05;;;;;;;1.71;62.93;99892.91;1756669;79;21202;-73
2021/03/08 00:11:12;;;;;;;11.43;9.68;;;;;;;1.72;63.06;99895.86;1769951;79;21248;-72
2021/03/08 00:13:39;;;;;;;13.62;10.35;;;;;;;1.70;63.11;99886.84;1750629;82;21127;-72
2021/03/08 00:16:07;;;;;;;14.18;10.68;;;;;;;1.69;63.19;99893.14;1776750;80;21155;-73
2021/03/08 00:18:35;;;;;;;15.00;10.50;;;;;;;1.68;63.28;99881.01;1779371;80;21179;-74
2021/03/08 00:21:05;;;;;;;13.28;9.85;;;;;;;1.69;63.34;99882.61;1769019;80;21123;-71
2021/03/08 00:23:33;;;;;;;13.72;10.13;;;;;;;1.67;63.44;99874.11;1752051;80;21361;-72
2021/03/08 00:26:03;;;;;;;15.32;10.58;;;;;;;1.67;63.52;99871.99;1749813;80;21143;-73
2021/03/08 00:28:30;;;;;;;13.90;10.50;;;;;;;1.67;63.63;99871.99;1751676;80;21107;-72
2021/03/08 00:30:58;;;;;;;14.47;10.00;;;;;;;1.64;63.71;99872.70;1764316;80;21555;-71
2021/03/08 00:33:26;;;;;;;17.07;11.22;;;;;;;1.64;63.79;99872.70;1769200;80;21154;-72
2021/03/08 00:35:54;;;;;;;13.38;10.15;;;;;;;1.64;63.80;99864.81;1765374;80;21374;-72
2021/03/08 00:38:22;;;;;;;12.70;9.38;;;;;;;1.64;63.86;99856.91;1769602;80;21162;-73
2021/03/08 00:40:51;;;;;;;14.38;10.70;;;;;;;1.63;63.95;99849.25;1772613;79;21175;-72
2021/03/08 00:43:20;;;;;;;14.03;10.78;;;;;;;1.61;64.06;99842.89;1766232;80;21574;-71
2021/03/08 00:45:48;;;;;;;13.32;10.15;;;;;;;1.62;64.12;99846.33;1778950;80;21140;-71
2021/03/08 00:48:16;;;;;;;14.20;10.45;;;;;;;1.61;64.16;99841.58;1772794;80;22376;-72
2021/03/08 00:50:44;;;;;;;13.38;10.30;;;;;;;1.60;64.18;99839.95;1764833;80;21637;-72
2021/03/08 00:53:13;;;;;;;13.35;10.45;;;;;;;1.60;64.25;99847.84;1771155;80;21170;-73
2021/03/08 00:55:41;;;;;;;14.55;10.58;;;;;;;1.59;64.30;99846.75;1770194;80;21126;-72
2021/03/08 00:58:09;;;;;;;13.50;10.32;;;;;;;1.60;64.29;99845.73;1750634;82;21056;-72
2021/03/08 01:00:37;;;;;;;14.15;10.75;;;;;;;1.60;64.33;99843.09;1731576;81;21329;-72
2021/03/08 01:03:06;;;;;;;12.98;9.25;;;;;;;1.60;64.39;99835.20;1735301;82;21071;-72
2021/03/08 01:05:35;;;;;;;11.90;9.48;;;;;;;1.61;64.45;99838.12;1732575;82;21144;-72
2021/03/08 01:08:05;;;;;;;12.88;9.68;;;;;;;1.61;64.50;99818.37;1731932;82;21168;-73
2021/03/08 01:10:35;;;;;;;14.38;10.65;;;;;;;1.61;64.53;99809.16;1723814;81;21151;-72
2021/03/08 01:13:05;;;;;;;15.25;11.05;;;;;;;1.63;64.47;99815.83;1727122;82;21413;-72
2021/03/08 01:15:33;;;;;;;16.23;10.68;;;;;;;1.64;64.44;99816.11;1736834;82;21663;-72
2021/03/08 01:18:00;;;;;;;15.08;10.90;;;;;;;1.62;64.45;99809.48;1716282;82;21188;-71
2021/03/08 01:20:29;;;;;;;13.60;9.78;;;;;;;1.61;64.52;99803.41;1720776;82;21278;-71
2021/03/08 01:22:57;;;;;;;15.18;10.38;;;;;;;1.60;64.64;99799.66;1731402;82;21203;-71
2021/03/08 01:25:29;;;;;;;13.78;10.03;;;;;;;1.59;64.70;99797.55;1736989;82;21497;-71
2021/03/08 01:27:58;;;;;;;18.00;11.40;;;;;;;1.60;64.73;99799.66;1729014;82;21496;-71
2021/03/08 01:30:35;;;;;;;14.13;10.70;;;;;;;1.59;64.76;99790.97;1735336;81;21190;-73
2021/03/08 01:33:04;;;;;;;14.78;11.05;;;;;;;1.59;64.82;99792.80;1731454;82;21171;-72
2021/03/08 01:35:33;;;;;;;15.93;11.65;;;;;;;1.58;64.87;99799.89;1711616;82;21096;-72
2021/03/08 01:38:02;;;;;;;15.95;10.60;;;;;;;1.58;64.97;99786.73;1718426;82;21390;-72
2021/03/08 01:40:31;;;;;;;14.00;10.95;;;;;;;1.58;65.06;99798.58;1731670;81;21667;-72
2021/03/08 01:42:59;;;;;;;14.33;10.50;;;;;;;1.55;65.16;99799.02;1727064;82;21215;-73
2021/03/08 01:45:26;;;;;;;14.63;10.43;;;;;;;1.54;65.20;99803.16;1724641;82;21151;-72
2021/03/08 01:47:55;;;;;;;15.08;10.95;;;;;;;1.52;65.28;99795.49;1732743;82;21156;-71
2021/03/08 01:50:38;;;;;;;15.60;11.03;;;;;;;1.54;65.31;99797.89;1727087;82;21221;-73
2021/03/08 01:53:08;;;;;;;15.28;10.85;;;;;;;1.54;65.26;99787.37;1730647;82;21253;-72
2021/03/08 01:55:37;;;;;;;16.77;11.90;;;;;;;1.55;65.31;99795.58;1710495;82;21123;-72
2021/03/08 01:58:04;;;;;;;14.60;10.82;;;;;;;1.55;65.30;99785.05;1719673;82;21254;-71
2021/03/08 02:00:33;;;;;;;18.10;12.35;;;;;;;1.56;65.36;99794.55;1736387;81;21071;-72
2021/03/08 02:03:02;;;;;;;14.90;10.82;;;;;;;1.57;65.36;99800.09;1731034;82;21457;-71
2021/03/08 02:05:33;;;;;;;14.38;11.00;;;;;;;1.57;65.37;99802.73;1713433;82;21605;-72
2021/03/08 02:08:02;;;;;;;15.13;11.33;;;;;;;1.56;65.40;99805.08;1730236;82;21180;-71
2021/03/08 02:10:36;;;;;;;15.88;11.28;;;;;;;1.56;65.41;99782.19;1734682;82;21662;-72
2021/03/08 02:13:38;;;;;;;14.23;11.17;;;;;;;1.63;65.43;99803.19;1768461;79;22846;-72
2021/03/08 02:16:28;;;;;;;14.68;10.53;;;;;;;1.56;65.44;99799.30;1763862;80;21615;-73
2021/03/08 02:19:21;;;;;;;14.35;10.38;;;;;;;1.56;65.42;99799.30;1783096;78;21226;-72
2021/03/08 02:22:25;;;;;;;15.75;11.83;;;;;;;1.56;65.49;99794.55;1795793;78;21180;-72
2021/03/08 02:25:04;;;;;;;15.98;11.08;;;;;;;1.57;65.57;99799.58;1785062;79;21100;-71
2021/03/08 02:28:12;;;;;;;16.48;11.57;;;;;;;1.55;65.59;99796.38;1799076;78;21133;-72
2021/03/08 02:30:49;;;;;;;15.78;11.22;;;;;;;1.53;65.66;99793.14;1794211;79;21148;-71
2021/03/08 02:33:25;;;;;;;16.70;11.20;;;;;;;1.54;65.71;99788.16;1789626;78;21860;-71
2021/03/08 02:36:08;;;;;;;16.60;12.27;;;;;;;1.58;65.70;99786.73;1775318;79;22716;-72
2021/03/08 02:38:48;;;;;;;14.83;10.43;;;;;;;1.53;65.73;99791.83;1731554;82;21145;-72
2021/03/08 02:41:18;;;;;;;16.10;11.80;;;;;;;1.52;65.74;99798.13;1748716;80;21330;-72
2021/03/08 02:43:49;;;;;;;15.28;11.03;;;;;;;1.51;65.79;99795.69;1750070;81;21580;-72
2021/03/08 02:46:27;;;;;;;16.35;10.80;;;;;;;1.51;65.83;99791.23;1779743;80;21126;-73
2021/03/08 02:49:02;;;;;;;15.58;10.50;;;;;;;1.51;65.89;99783.84;1754328;80;21257;-72
2021/03/08 02:51:32;;;;;;;15.55;10.43;;;;;;;1.52;65.84;99784.97;1796177;77;21119;-73
2021/03/08 02:54:02;;;;;;;15.10;10.60;;;;;;;1.51;65.76;99788.59;1802153;79;21362;-72
2021/03/08 02:56:33;;;;;;;17.55;11.15;;;;;;;1.51;65.77;99785.16;1814471;79;21067;-72
2021/03/08 02:59:04;;;;;;;15.63;11.12;;;;;;;1.49;65.81;99784.08;1797576;79;21171;-73
2021/03/08 03:01:34;;;;;;;;;;;;;;;1.51;65.88;99781.22;1797800;79;21164;-73
2021/03/08 03:04:03;;;;;;;14.87;10.82;;;;;;;1.50;65.86;99786.20;1796328;79;20220;-72
2021/03/08 03:06:33;;;;;;;14.38;10.75;;;;;;;1.50;65.91;99773.03;1801260;79;21364;-71
2021/03/08 03:09:10;;;;;;;15.32;11.50;;;;;;;1.47;65.92;99772.95;1812338;79;21289;-72
2021/03/08 03:11:40;;;;;;;14.83;11.03;;;;;;;1.45;65.95;99764.48;1800819;77;21499;-72
2021/03/08 03:14:09;;;;;;;14.03;10.58;;;;;;;1.46;65.98;99770.55;1802255;79;21052;-72
2021/03/08 03:16:38;;;;;;;17.17;11.60;;;;;;;1.47;65.98;99772.95;1785255;79;21583;-72
2021/03/08 03:19:06;;;;;;;15.63;11.55;;;;;;;1.46;65.98;99775.30;1784766;79;21357;-73
2021/03/08 03:21:34;;;;;;;14.18;11.08;;;;;;;1.45;66.01;99767.13;1802969;79;21571;-72
2021/03/08 03:24:02;;;;;;;15.30;11.35;;;;;;;1.45;65.98;99768.44;1773962;79;21248;-72
2021/03/08 03:26:30;;;;;;;15.28;11.38;;;;;;;1.45;66.03;99768.44;1801568;79;21049;-72
2021/03/08 03:28:59;;;;;;;15.10;10.43;;;;;;;1.46;66.05;99779.76;1758819;77;21173;-72
2021/03/08 03:31:29;;;;;;;15.43;11.33;;;;;;;1.44;66.11;99770.75;1790577;79;21447;-72
2021/03/08 03:33:57;;;;;;;15.95;11.85;;;;;;;1.44;66.17;99779.96;1803011;79;21146;-70
2021/03/08 03:36:29;;;;;;;17.12;12.30;;;;;;;1.42;66.20;99774.13;1800423;79;21144;-71
2021/03/08 03:38:57;;;;;;;14.98;11.45;;;;;;;1.40;66.32;99780.11;1813303;79;21595;-73
2021/03/08 03:41:26;;;;;;;15.68;12.00;;;;;;;1.41;66.45;99789.60;1794440;79;21206;-71
2021/03/08 03:43:54;;;;;;;15.65;12.25;;;;;;;1.39;66.80;99781.94;1803672;79;21678;-72
2021/03/08 03:46:22;;;;;;;16.37;11.12;;;;;;;1.38;67.42;99803.19;1813483;79;21171;-72
2021/03/08 03:48:50;;;;;;;19.07;12.07;;;;;;;1.34;68.00;99800.70;1796437;79;21185;-71
2021/03/08 03:51:20;;;;;;;15.28;12.28;;;;;;;1.28;68.44;99791.83;1789356;77;21172;-72
2021/03/08 03:53:48;;;;;;;14.55;11.45;;;;;;;1.22;69.04;99791.88;1797375;79;21565;-72
2021/03/08 03:56:16;;;;;;;16.90;12.28;;;;;;;1.16;69.48;99791.73;1812171;79;21363;-72
2021/03/08 03:58:52;;;;;;;18.65;13.35;;;;;;;1.12;69.80;99792.38;1785928;79;21197;-72
2021/03/08 04:01:33;;;;;;;16.75;12.45;;;;;;;1.07;70.23;99782.48;1795745;79;21142;-73
2021/03/08 04:04:16;;;;;;;16.00;11.05;;;;;;;1.02;70.50;99794.17;1765894;79;21570;-72
2021/03/08 04:06:50;;;;;;;16.50;11.97;;;;;;;1.00;70.70;99794.08;1788940;79;21148;-73
2021/03/08 04:09:18;;;;;;;16.73;11.83;;;;;;;0.97;70.88;99787.41;1781844;79;21367;-73
2021/03/08 04:11:46;;;;;;;15.93;11.70;;;;;;;0.96;70.86;99780.55;1786497;79;21210;-73
2021/03/08 04:14:16;;;;;;;17.77;12.55;;;;;;;0.98;70.79;99785.59;1781528;79;21147;-72
2021/03/08 04:16:50;;;;;;;16.55;11.30;;;;;;;0.98;70.63;99772.44;1793310;77;21563;-72
2021/03/08 04:19:21;;;;;;;16.57;11.85;;;;;;;0.99;70.57;99781.93;1785791;79;21155;-74
2021/03/08 04:21:49;;;;;;;16.35;12.18;;;;;;;1.00;70.42;99786.19;1794091;77;21395;-73
2021/03/08 04:24:16;;;;;;;16.75;12.18;;;;;;;1.01;70.25;99775.96;1805694;77;21191;-73
2021/03/08 04:26:45;;;;;;;17.82;12.43;;;;;;;1.02;70.13;99778.88;1803997;79;21195;-74
2021/03/08 04:29:12;;;;;;;15.75;12.20;;;;;;;1.02;69.90;99771.81;1798387;79;21254;-71
2021/03/08 04:31:41;;;;;;;16.05;11.78;;;;;;;1.04;69.80;99772.39;1787598;79;21618;-72
2021/03/08 04:34:09;;;;;;;17.73;12.68;;;;;;;1.03;69.47;99773.42;1799588;79;21371;-73
2021/03/08 04:36:37;;;;;;;17.37;12.63;;;;;;;1.05;69.40;99776.62;1783039;79;21634;-74
2021/03/08 04:39:06;;;;;;;16.60;12.50;;;;;;;1.07;69.31;99781.69;1764110;79;21217;-73
2021/03/08 04:41:33;;;;;;;16.95;12.50;;;;;;;1.09;69.26;99779.14;1781859;79;21190;-72
2021/03/08 04:44:01;;;;;;;17.95;13.38;;;;;;;1.09;69.37;99785.72;1795852;77;21171;-72
2021/03/08 04:46:31;;;;;;;17.90;12.28;;;;;;;1.10;69.68;99795.21;1805874;79;21642;-73
2021/03/08 04:48:59;;;;;;;19.73;12.23;;;;;;;1.07;70.12;99782.48;1798364;79;21131;-73
2021/03/08 04:51:29;;;;;;;19.17;14.03;;;;;;;1.05;70.46;99795.03;1807935;79;21626;-73
2021/03/08 04:53:57;;;;;;;17.17;13.05;;;;;;;1.04;70.65;99783.42;1796804;77;21122;-73
2021/03/08 04:56:27;;;;;;;16.73;11.73;;;;;;;1.03;70.86;99782.63;1798035;79;21170;-72
2021/03/08 04:58:55;;;;;;;15.55;11.73;;;;;;;1.05;70.94;99792.91;1770552;80;21803;-73
2021/03/08 05:01:24;;;;;;;17.30;12.37;;;;;;;1.05;71.02;99794.23;1789804;77;21242;-72
2021/03/08 05:03:51;;;;;;;18.45;12.68;;;;;;;1.08;71.08;99791.17;1791163;79;21162;-73
2021/03/08 05:06:19;;;;;;;16.77;12.15;;;;;;;1.09;71.17;99788.35;1801452;79;21163;-73
2021/03/08 05:08:47;;;;;;;17.50;12.28;;;;;;;1.10;71.49;99800.98;1796376;77;21184;-72
2021/03/08 05:11:15;;;;;;;16.10;11.80;;;;;;;1.10;71.70;99800.47;1797165;77;21210;-72
2021/03/08 05:13:45;;;;;;;15.53;11.22;;;;;;;1.08;71.99;99805.64;1794610;79;21222;-72
2021/03/08 05:16:13;;;;;;;17.52;11.30;;;;;;;1.08;72.22;99807.76;1809147;79;21199;-72
2021/03/08 05:18:41;;;;;;;16.82;11.35;;;;;;;1.07;72.37;99800.09;1796129;79;21551;-73
2021/03/08 05:21:12;;;;;;;16.73;12.23;;;;;;;1.07;72.59;99802.72;1796966;79;21168;-73
2021/03/08 05:23:43;;;;;;;15.95;11.88;;;;;;;1.08;72.76;99801.19;1793430;77;21361;-72
2021/03/08 05:26:10;;;;;;;15.65;11.35;;;;;;;1.08;72.72;99805.64;1801275;79;21132;-72
2021/03/08 05:28:38;;;;;;;15.55;11.10;;;;;;;1.10;72.78;99809.67;1783485;79;21130;-73
2021/03/08 05:31:06;;;;;;;16.35;11.55;;;;;;;1.14;72.68;99806.11;1801399;77;21123;-72
2021/03/08 05:33:34;;;;;;;16.05;11.35;;;;;;;1.16;72.62;99797.51;1789786;77;21222;-72
2021/03/08 05:36:02;;;;;;;15.40;11.43;;;;;;;1.16;72.58;99810.14;1783454;79;21240;-73
2021/03/08 05:38:31;;;;;;;15.98;10.65;;;;;;;1.17;72.52;99807.80;1797293;77;21230;-72
2021/03/08 05:41:12;;;;;;;15.98;11.68;;;;;;;1.21;72.51;99810.00;1800011;77;21685;-72
2021/03/08 05:43:40;;;;;;;17.15;12.05;;;;;;;1.23;72.44;99808.78;1784540;77;21136;-72
2021/03/08 05:46:32;;;;;;;16.97;12.53;;;;;;;1.25;72.39;99814.64;1792345;77;21655;-72
2021/03/08 05:49:57;;;;;;;14.45;10.75;;;;;;;1.24;72.34;99822.73;1799598;79;21345;-72
2021/03/08 05:53:00;;;;;;;14.85;10.63;;;;;;;1.27;72.35;99821.80;1809329;77;21598;-73
2021/03/08 05:55:49;;;;;;;;;;;;;;;1.31;72.17;99824.80;1804366;77;21167;-72
2021/03/08 05:58:57;;;;;;;16.12;11.43;;;;;;;1.30;71.99;99824.00;1817218;77;20214;-72
2021/03/08 06:02:04;;;;;;;16.45;12.23;;;;;;;1.30;71.99;99831.09;1817531;77;21096;-72
2021/03/08 06:05:07;;;;;;;16.32;10.82;;;;;;;1.31;71.96;99836.13;1799486;77;21368;-74
2021/03/08 06:07:51;;;;;;;13.98;10.08;;;;;;;1.34;71.96;99842.79;1801649;77;21126;-73
2021/03/08 06:10:24;;;;;;;15.35;11.48;;;;;;;1.34;71.97;99836.22;1803706;77;21230;-72
2021/03/08 06:12:54;;;;;;;15.43;11.40;;;;;;;1.34;72.02;99842.79;1800118;77;21110;-72
2021/03/08 06:15:23;;;;;;;14.75;9.60;;;;;;;1.33;72.05;99868.30;1796793;77;21148;-72
2021/03/08 06:17:50;;;;;;;16.82;12.45;;;;;;;1.32;72.16;99863.27;1802847;77;21378;-71
2021/03/08 06:20:19;;;;;;;13.03;9.00;;;;;;;1.31;72.44;99870.84;1805270;77;21496;-73
2021/03/08 06:22:48;;;;;;;8.93;6.05;;;;;;;1.31;71.89;99893.20;1806961;77;21069;-72
2021/03/08 06:25:16;;;;;;;9.13;5.00;;;;;;;1.29;70.82;99898.69;1806409;77;21583;-73
2021/03/08 06:27:44;;;;;;;7.37;4.40;;;;;;;1.26;69.53;99884.64;1793833;77;21117;-73
2021/03/08 06:30:15;;;;;;;8.08;4.33;;;;;;;1.19;68.68;99884.40;1799960;77;21650;-72
2021/03/08 06:32:45;;;;;;;6.90;3.72;;;;;;;1.13;68.42;99882.09;1752230;80;21226;-73
2021/03/08 06:35:16;;;;;;;5.87;3.27;;;;;;;1.08;68.21;99893.74;1746375;80;21239;-73
2021/03/08 06:37:46;;;;;;;5.72;2.90;;;;;;;1.05;67.84;99915.20;1751831;81;21140;-74
2021/03/08 06:40:16;;;;;;;4.35;2.45;;;;;;;1.02;67.70;99902.47;1747559;80;21140;-73
2021/03/08 06:42:43;;;;;;;4.33;2.10;;;;;;;0.98;67.00;99911.29;1754497;81;21379;-73
2021/03/08 06:45:13;;;;;;;3.80;1.85;;;;;;;0.89;66.90;99907.31;1746181;79;21191;-73
2021/03/08 06:47:41;;;;;;;4.37;1.70;;;;;;;0.84;66.30;99900.03;1756367;81;21081;-74
2021/03/08 06:50:11;;;;;;;4.60;2.00;;;;;;;0.82;65.83;99897.31;1761554;81;21238;-73
2021/03/08 06:52:41;;;;;;;4.28;2.00;;;;;;;0.82;65.57;99910.45;1739305;81;21791;-73
2021/03/08 06:55:10;;;;;;;3.85;1.75;;;;;;;0.82;65.27;99902.56;1744513;81;21501;-73
2021/03/08 06:57:38;;;;;;;4.55;1.87;;;;;;;0.82;65.37;99907.82;1755007;81;21192;-72
2021/03/08 07:00:11;;;;;;;4.47;1.70;;;;;;;0.84;65.37;99910.55;1759086;79;21207;-73
2021/03/08 07:02:49;;;;;;;6.67;2.17;;;;;;;0.82;64.96;99897.31;1808319;77;21197;-72
2021/03/08 07:05:26;;;;;;;4.85;1.85;;;;;;;0.80;64.98;99901.98;1808688;77;21658;-73
2021/03/08 07:08:01;;;;;;;6.55;2.30;;;;;;;0.82;64.87;99898.62;1811987;77;21362;-73
2021/03/08 07:10:38;;;;;;;5.10;2.10;;;;;;;0.81;64.78;99907.53;1816638;77;21686;-73
2021/03/08 07:13:10;;;;;;;4.58;2.05;;;;;;;0.80;65.02;99910.67;1808847;79;21107;-73
2021/03/08 07:15:56;;;;;;;5.33;2.10;;;;;;;0.82;64.99;99909.14;1807240;77;21233;-72
2021/03/08 07:18:32;;;;;;;5.30;1.83;;;;;;;0.89;64.75;99915.20;1834082;76;22803;-73
2021/03/08 07:21:21;;;;;;;3.92;1.82;;;;;;;0.84;64.68;99912.38;1811094;78;21173;-73
2021/03/08 07:23:50;;;;;;;4.55;1.77;;;;;;;0.82;64.06;99906.51;1824448;77;21350;-72
2021/03/08 07:26:21;;;;;;;3.00;1.40;;;;;;;0.83;63.62;99910.27;1819028;78;21203;-72
2021/03/08 07:29:11;;;;;;;2.62;1.20;;;;;;;0.84;62.30;99917.63;1824754;78;21127;-72
2021/03/08 07:31:42;;;;;;;3.52;1.02;;;;;;;0.81;61.07;99916.22;1827258;78;21080;-72
2021/03/08 07:34:10;;;;;;;3.60;1.30;;;;;;;0.81;60.82;99916.22;1815987;77;21093;-72
2021/03/08 07:36:43;;;;;;;3.33;1.32;;;;;;;0.86;60.79;99923.50;1813025;78;21208;-72
2021/03/08 07:39:18;;;;;;;4.00;1.50;;;;;;;0.87;59.90;99919.34;1849150;77;21465;-72
2021/03/08 07:41:56;;;;;;;3.42;1.60;;;;;;;0.88;59.79;99922.77;1849622;77;21105;-74
2021/03/08 07:44:26;;;;;;;3.15;1.62;;;;;;;0.92;59.91;99918.70;1800921;77;21545;-74
2021/03/08 07:46:55;;;;;;;4.12;1.20;;;;;;;1.00;59.78;99921.10;1847017;76;21061;-72
2021/03/08 07:49:36;;;;;;;3.22;1.25;;;;;;;1.10;59.68;99919.34;1811604;78;22296;-73
2021/03/08 07:52:11;;;;;;;2.50;1.20;;;;;;;1.12;59.26;99920.75;1803043;77;21544;-73
2021/03/08 07:54:58;;;;;;;5.17;1.60;;;;;;;1.21;58.98;99929.17;1816001;77;21548;-73
2021/03/08 07:57:28;;;;;;;4.72;1.90;;;;;;;1.32;58.92;99935.62;1806667;78;21675;-72
2021/03/08 07:59:57;;;;;;;3.33;1.55;;;;;;;1.45;58.75;99921.55;1821665;77;21085;-72
2021/03/08 08:02:25;;;;;;;4.65;1.77;;;;;;;1.56;58.30;99932.72;1852387;77;21189;-72
2021/03/08 08:04:56;;;;;;;3.60;1.40;;;;;;;1.66;57.52;99932.25;1809879;78;21208;-72
2021/03/08 08:07:26;;;;;;;4.00;1.70;;;;;;;1.68;57.08;99934.98;1814180;78;21140;-72
2021/03/08 08:09:54;;;;;;;3.22;1.50;;;;;;;1.71;56.79;99940.30;1797668;78;21544;-71
2021/03/08 08:12:30;;;;;;;2.98;1.35;;;;;;;1.78;56.69;99935.81;1816464;78;21105;-72
2021/03/08 08:14:55;;;;;;;5.00;1.42;;;;;;;1.83;56.37;99934.13;1822009;78;21298;-73
2021/03/08 08:17:23;;;;;;;3.62;1.22;;;;;;;1.86;55.99;99928.44;1820138;77;21154;-73
2021/03/08 08:19:51;;;;;;;3.37;1.17;;;;;;;1.84;55.91;99930.98;1836175;77;21052;-73
2021/03/08 08:22:23;;;;;;;3.10;1.20;;;;;;;1.79;55.88;99929.01;1847425;77;21087;-73
2021/03/08 08:24:54;;;;;;;2.83;1.27;;;;;;;1.80;55.98;99916.64;1842543;77;21524;-73
2021/03/08 08:27:23;;;;;;;3.17;1.40;;;;;;;1.85;56.32;99921.57;1821648;77;21198;-72
2021/03/08 08:29:51;;;;;;;4.90;1.75;;;;;;;1.93;55.63;99916.53;1812740;78;21548;-73
2021/03/08 08:32:19;;;;;;;3.30;1.40;;;;;;;1.92;55.67;99918.88;1817693;77;21074;-73
2021/03/08 08:34:50;;;;;;;3.00;1.37;;;;;;;2.02;56.08;99919.71;1832002;77;21591;-73
2021/03/08 08:37:21;;;;;;;2.72;1.32;;;;;;;2.19;55.17;99920.76;1829122;77;21168;-74
2021/03/08 08:39:57;;;;;;;3.27;1.27;;;;;;;2.24;53.71;99920.92;1802726;78;21143;-76
2021/03/08 08:42:29;;;;;;;3.00;1.47;;;;;;;2.24;52.86;99928.03;1803558;78;21135;-73
2021/03/08 08:44:58;;;;;;;2.75;1.12;;;;;;;2.26;52.66;99911.47;1816594;78;22448;-72
2021/03/08 08:47:32;;;;;;;3.22;1.42;;;;;;;2.33;52.82;99922.23;1819106;78;21171;-73
2021/03/08 08:50:05;;;;;;;3.30;1.02;;;;;;;2.43;52.08;99928.31;1820925;78;21165;-73
2021/03/08 08:52:51;;;;;;;1.65;0.95;;;;;;;2.37;49.88;99925.75;1821644;78;21369;-73
2021/03/08 08:55:23;;;;;;;3.20;1.07;;;;;;;2.27;50.16;99914.39;1811178;78;21179;-74
2021/03/08 08:58:24;;;;;;;1.43;0.80;;;;;;;2.30;48.58;99922.70;1814908;78;21244;-74
2021/03/08 09:01:16;;;;;;;2.85;0.90;;;;;;;2.32;46.96;99924.58;1824630;78;21092;-73
2021/03/08 09:04:05;;;;;;;2.75;1.07;;;;;;;2.27;47.02;99918.34;1819363;78;21045;-73
2021/03/08 09:06:59;;;;;;;3.75;1.02;;;;;;;2.24;47.86;99928.83;1829818;78;21064;-71
2021/03/08 09:09:36;;;;;;;3.12;1.17;;;;;;;2.25;47.10;99919.89;1822590;78;21175;-72
2021/03/08 09:12:08;;;;;;;1.30;0.80;;;;;;;2.26;47.30;99916.73;1789453;78;21175;-73
2021/03/08 09:14:55;;;;;;;3.55;1.05;;;;;;;2.28;47.44;99920.78;1821056;78;21625;-73
2021/03/08 09:17:32;;;;;;;2.70;0.95;;;;;;;2.29;47.71;99921.06;1814127;78;21701;-74
2021/03/08 09:20:06;;;;;;;2.17;0.80;;;;;;;2.43;46.36;99924.87;1821157;78;21453;-73
2021/03/08 09:25:33;;;;;;;1.93;0.77;;;;;;;2.54;44.17;99929.44;1799409;78;22638;-73
2021/03/08 09:28:10;;;;;;;2.58;0.80;;;;;;;2.39;43.62;99958.78;1784875;78;21167;-72
2021/03/08 09:30:44;;;;;;;2.70;1.07;;;;;;;2.28;44.54;99939.22;1804607;78;22375;-72
2021/03/08 09:33:19;;;;;;;1.57;0.90;;;;;;;2.15;44.71;99939.86;1772275;78;21192;-71
2021/03/08 09:35:54;;;;;;;3.55;1.00;;;;;;;2.11;45.07;99948.20;1761656;78;21129;-71
2021/03/08 09:38:26;;;;;;;3.85;0.98;;;;;;;2.22;45.63;99928.75;1743018;80;21286;-71
2021/03/08 09:40:57;;;;;;;2.10;0.98;;;;;;;2.44;45.16;99927.31;1753930;80;22374;-73
2021/03/08 09:43:32;;;;;;;1.90;0.80;;;;;;;2.63;45.03;99944.44;1740688;81;22377;-72
2021/03/08 09:46:09;;;;;;;2.40;0.82;;;;;;;2.73;44.65;99930.23;1748116;80;21173;-76
2021/03/08 09:48:41;;;;;;;2.17;0.70;;;;;;;2.75;44.31;99948.77;1752529;80;21175;-73
2021/03/08 09:51:17;;;;;;;1.37;0.60;;;;;;;2.74;42.73;99938.45;1742655;81;21194;-75
2021/03/08 09:53:48;;;;;;;1.95;0.75;;;;;;;2.69;42.63;99950.16;1753928;80;21143;-75
2021/03/08 09:56:18;;;;;;;1.87;0.80;;;;;;;2.62;42.74;99958.14;1788579;79;21359;-71
2021/03/08 09:58:46;;;;;;;2.58;0.90;;;;;;;2.56;42.93;99947.95;1774761;80;21116;-73
2021/03/08 10:01:20;;;;;;;1.37;0.70;;;;;;;2.52;42.81;99952.05;1753198;80;21162;-71
2021/03/08 10:03:49;;;;;;;1.90;0.70;;;;;;;2.48;43.60;99948.77;1772426;80;21215;-71
2021/03/08 10:06:31;;;;;;;2.87;1.02;;;;;;;2.44;43.62;99951.03;1765664;80;21614;-73
2021/03/08 10:09:20;;;;;;;3.67;1.00;;;;;;;2.39;43.21;99950.06;1761548;79;21689;-71
2021/03/08 10:11:48;;;;;;;1.52;0.80;;;;;;;2.39;42.40;99948.75;1764520;81;21111;-72
2021/03/08 10:29:04;;;;;;;2.20;0.90;;;;;;;3.69;38.37;99939.92;1752194;78;22634;-75
2021/03/08 10:31:54;;;;;;;1.67;0.90;;;;;;;3.40;38.16;99938.12;1771500;78;22468;-76
2021/03/08 10:34:22;;;;;;;1.95;0.70;;;;;;;3.09;38.02;99951.00;1728687;81;21180;-79
2021/03/08 10:36:51;;;;;;;1.80;0.80;;;;;;;2.91;38.05;99950.52;1735259;82;21257;-76
2021/03/08 10:39:19;;;;;;;2.50;0.98;;;;;;;2.78;38.23;99943.05;1733057;80;21156;-77
2021/03/08 10:41:47;;;;;;;1.55;0.70;;;;;;;2.74;38.33;99932.66;1712461;82;21798;-79
2021/03/08 10:44:20;;;;;;;2.52;0.90;;;;;;;2.69;38.35;99937.77;1723416;82;21204;-76
2021/03/08 10:46:50;;;;;;;1.92;0.70;;;;;;;2.63;37.69;99946.56;1724661;82;21192;-78
2021/03/08 10:49:19;;;;;;;2.75;0.90;;;;;;;2.56;38.26;99944.51;1725515;82;21341;-75
2021/03/08 10:51:46;;;;;;;2.75;1.00;;;;;;;2.49;38.23;99939.31;1667914;83;21497;-81
2021/03/08 10:54:14;;;;;;;2.37;0.95;;;;;;;2.45;38.97;99940.78;1667742;84;21211;-78
2021/03/08 10:56:45;;;;;;;1.27;0.70;;;;;;;2.42;39.24;99942.53;1690484;84;21209;-79
2021/03/08 10:59:28;;;;;;;1.70;0.70;;;;;;;2.41;38.78;99945.39;1688306;82;21207;-78
2021/03/08 11:02:09;;;;;;;1.82;0.80;;;;;;;2.39;38.89;99939.01;1687078;84;22731;-77
2021/03/08 11:04:38;;;;;;;2.00;1.00;;;;;;;2.48;39.19;99951.41;1693427;84;21277;-78
2021/03/08 11:07:08;;;;;;;2.10;0.85;;;;;;;2.61;39.27;99934.13;1693968;84;21176;-77
2021/03/08 11:09:39;;;;;;;1.95;0.70;;;;;;;2.71;38.84;99941.52;1685034;82;21211;-78
2021/03/08 11:12:23;;;;;;;2.08;0.90;;;;;;;2.74;37.45;99933.97;1655245;84;21176;-77
2021/03/08 11:14:56;;;;;;;1.77;0.70;;;;;;;2.74;37.10;99935.30;1686859;84;21380;-77
2021/03/08 11:17:40;;;;;;;2.25;0.98;;;;;;;2.81;37.54;99925.47;1684438;84;21196;-77
2021/03/08 11:20:22;;;;;;;1.87;0.90;;;;;;;2.91;37.97;99928.91;1674061;85;21410;-77
2021/03/08 11:23:06;;;;;;;2.52;0.95;;;;;;;3.01;37.69;99929.17;1676028;85;21224;-77
2021/03/08 11:25:43;;;;;;;3.42;1.10;;;;;;;3.11;37.72;99935.25;1675500;85;21232;-76
2021/03/08 11:28:14;;;;;;;2.12;0.98;;;;;;;3.19;37.63;99920.92;1675090;85;21404;-78
2021/03/08 11:30:50;;;;;;;2.27;0.90;;;;;;;3.25;37.33;99932.71;1663824;85;21729;-78
2021/03/08 11:33:19;;;;;;;2.45;0.90;;;;;;;3.31;37.77;99926.26;1659275;86;21739;-78
2021/03/08 11:35:51;;;;;;;2.27;0.88;;;;;;;3.40;37.07;99919.12;1662559;86;21219;-76
2021/03/08 11:38:25;;;;;;;1.15;0.68;;;;;;;3.46;36.56;99917.42;1663649;84;21140;-77
2021/03/08 11:40:53;;;;;;;2.30;0.80;;;;;;;3.60;36.37;99912.74;1702004;83;21407;-75
2021/03/08 11:43:22;;;;;;;3.27;0.80;;;;;;;3.75;35.94;99906.00;1702057;84;21232;-77
2021/03/08 11:45:51;;;;;;;1.90;0.93;;;;;;;3.83;36.09;99919.38;1702419;84;21194;-77
2021/03/08 11:48:23;;;;;;;2.30;0.78;;;;;;;3.79;35.89;99915.59;1701424;84;21252;-77
2021/03/08 11:51:00;;;;;;;2.00;1.07;;;;;;;3.88;35.47;99906.30;1748157;79;23303;-71
2021/03/08 11:53:27;;;;;;;2.02;0.90;;;;;;;3.92;36.28;99924.63;1711828;82;21604;-71
2021/03/08 11:55:55;;;;;;;1.02;0.60;;;;;;;4.08;36.14;99919.18;1730798;80;21372;-72
2021/03/08 11:58:23;;;;;;;1.40;0.65;;;;;;;4.12;35.14;99912.91;1735707;80;21198;-72
2021/03/08 12:00:51;;;;;;;1.70;0.70;;;;;;;4.11;35.54;99914.73;1733480;80;21661;-71
2021/03/08 12:03:19;;;;;;;1.42;0.70;;;;;;;4.05;35.74;99915.67;1735155;80;21640;-72
2021/03/08 12:05:46;;;;;;;3.25;0.80;;;;;;;4.03;35.95;99911.64;1734603;80;21189;-72
2021/03/08 12:08:16;;;;;;;3.42;1.20;;;;;;;3.95;36.14;99926.01;1727981;80;21201;-72
2021/03/08 12:10:45;;;;;;;2.42;1.00;;;;;;;3.83;37.04;99938.39;1745231;80;21729;-70
2021/03/08 12:13:13;;;;;;;2.30;1.00;;;;;;;3.73;36.56;99929.18;1746964;80;21224;-71
2021/03/08 12:15:42;;;;;;;2.45;1.25;;;;;;;3.61;36.15;99919.10;1745814;80;21198;-70
2021/03/08 12:18:10;;;;;;;3.42;1.35;;;;;;;3.47;36.73;99934.34;1725542;80;22366;-70